Riverton, WY

12:12 AM MDT on July 31, 2014 (GMT -0600)
KWYRIVER2 Elev 5405 ft | 43.08 °N, 108.52 °W | Change Station

Current weather conditions updated 8 minutes ago

Clear
Clear
61.6 °F
Feels Like 61.6 °F
N
0.0
Wind Variable Wind from NNW

Today is forecast to be Warmer than yesterday.

Today
High -- | Low -- °F
--% Chance of Precip.
Yesterday
High -- | Low -- °F
Precip. -- in
6:03 AM 8:36 PM
Waxing Crescent, 16% visible
Pressure 30.31 in
Visibility 10.0 miles
Clouds Clear
Dew Point 44 °F
Humidity 52%
Rainfall 0.00 in
Snow Depth Not available.
UV 0.0 out of 12
Pollen 5.70 out of 12
Air Quality Not available.
Flu Activity Not available.
METAR KRIW 310553Z AUTO 32010KT 10SM CLR 17/05 A3031

More Conditions Fewer Conditions

Pressure 30.31 in
Visibility 10.0 miles
Clouds Clear
Dew Point 44 °F
Humidity 52%
Rainfall 0.00 in
Snow Depth Not available.
UV 0.0 out of 12
Pollen 5.70 out of 12
Air Quality Not available.
Flu Activity Not available.
METAR KRIW 310553Z AUTO 32010KT 10SM CLR 17/05 A3031

More Conditions Fewer Conditions

10-Day Weather Forecast

Almanac

Astronomy

Jul. 31, 2014 Rise Set
Actual Time 6:03 AM MDT 8:36 PM MDT
Civil Twilight 5:31 AM MDT 9:08 PM MDT
Nautical Twilight 4:50 AM MDT 9:48 PM MDT
Astronomical Twilight 4:04 AM MDT 10:34 PM MDT
Moon 10:42 AM MDT 10:41 PM MDT
Length of Visible Light 15h 37m
Length of Day
14h 32m
Tomorrow will be 2m 12s shorter.
Waxing Crescent, 16% of the Moon is Illuminated
Today
Waxing Crescent
Aug 3
First Quarter
Aug 10
Full
Aug 17
Last Quarter
Aug 25
New

Today's Extremes

State Highs State Lows

Community

WunderPhotos

Upload Photos

1,739,251 photos uploaded!

Nearby

Snow Depth

Station Depth Elevation
Big Sandy Opening 1 in 9080 ft
New Fork Lake 0 in 8340 ft
Kendall R.S. 0 in 7740 ft
Loomis Park 0 in 8240 ft
Gros Ventre Summit 0 in 8750 ft

Earthquake Activity

City Distance Mag. Time & Date
No recent earthquake activity has been reported nearby.
Minimum magnitude displayed is 2.5.

Coastal Water Temperatures

Place Temperature
No Stations Reporting

Nearby Weather Stations

Station Location Temp. Dew Point Humidity Wind Precip. Elev Updated Type
Riverton, WY 61.6 °F 44 °F 52% NNW  at  0.0 mph - / hr 5405 ft 12:03 AM MDT Normal
Logan Park, Riverton, WY 59.0 °F 50 °F 71% South  at  0.0 mph 0.00 in / hr 4984 ft 12:12 AM MDT Rapid Fire
HADS LITTLE WIND RIVER NEAR RIVERTON WY, Saint Stephens, WY 60 °F - - North  at  - 0.00 in / hr 4900 ft 11:15 PM MDT MADIS

Show More Stations Show Fewer Stations